Change the Weather History Date:

Wednesday, March 13, 2013

  Actual Average Record
Temperature  
Mean Temperature 30 °F -  
Max Temperature 36 °F 43 °F 62 °F (2012)
Min Temperature 23 °F 31 °F 3 °F (2014)
Degree Days  
Heating Degree Days 36    
Moisture  
Dew Point 27 °F    
Average Humidity 80    
Maximum Humidity 100    
Minimum Humidity 45    
Precipitation  
Precipitation 0.01 in 0.08 in - ()
Sea Level Pressure  
Sea Level Pressure 29.87 in    
Wind  
Wind Speed 11 mph ()    
Max Wind Speed 29 mph    
Max Gust Speed 37 mph    
Visibility 7.4 miles    
Events Rain , Snow    
Averages and records for this station are not official NWS values.
T = Trace of Precipitation, MM = Missing Value Source: Averaged Metar Reports

Daily Weather History Graph

Daily Weather History Graph

Search for Another Location

Airport or City:

Trip Planner

Search our weather history database for the weather conditions in past years. The results will help you decide how hot, cold, wet, or windy it might be!

Date:

Astronomy

Mar. 13, 2013 Rise Set
Actual Time 7:32 AM EDT 7:21 PM EDT
Civil Twilight 7:04 AM EDT 7:50 PM EDT
Nautical Twilight 6:31 AM EDT 8:23 PM EDT
Astronomical Twilight 5:57 AM EDT 8:57 PM EDT
Moon 8:06 AM EDT (3/13) 9:42 PM EDT (3/13)
Length of Visible Light 12h 45m
Length of Day
11h 48m
Waxing Crescent, 4% of the Moon is Illuminated
Mar 13
Waxing Crescent
Mar 19
First Quarter
Mar 27
Full
Apr 3
Last Quarter
Apr 10
New

Hourly Weather History & Observations

Time (EDT) Temp. Windchill Dew Point Humidity Pressure Visibility Wind Dir Wind Speed Gust Speed Precip Events Conditions
12:00 AM 33.8 °F 27.0 °F 30.2 °F 87% 29.89 in 9.0 mi West 8.1 mph - N/A Snow Light Snow
12:36 AM 33.8 °F 27.0 °F 30.2 °F 87% 29.88 in 9.0 mi WSW 8.1 mph - N/A Snow Light Snow
12:41 AM 33.8 °F 28.6 °F 30.2 °F 87% 29.89 in 9.0 mi WSW 5.8 mph - N/A   Overcast
12:42 AM 33.8 °F 27.7 °F 30.2 °F 87% 29.89 in 9.0 mi WSW 6.9 mph - N/A Rain Light Rain
12:47 AM 33.8 °F 26.4 °F 30.2 °F 87% 29.89 in 9.0 mi WSW 9.2 mph - N/A Rain Light Rain
12:54 AM 33.8 °F 25.8 °F 30.2 °F 87% 29.89 in 9.0 mi SW 10.4 mph - N/A Rain , Snow Light Snow
12:59 AM 33.8 °F 26.4 °F 32.0 °F 93% 29.89 in 9.0 mi WSW 9.2 mph - N/A Snow Light Snow
1:00 AM 33.8 °F 26.4 °F 32.0 °F 93% 29.89 in 9.0 mi WSW 9.2 mph - N/A Snow Light Snow
1:20 AM 33.8 °F 25.8 °F 32.0 °F 93% 29.89 in 9.0 mi SW 10.4 mph - N/A Snow Light Snow
1:25 AM 33.8 °F 25.8 °F 32.0 °F 93% 29.89 in 9.0 mi SW 10.4 mph - N/A Rain Light Rain
1:30 AM 33.8 °F 25.8 °F 32.0 °F 93% 29.89 in 9.0 mi SW 10.4 mph - N/A Rain Light Rain
1:34 AM 33.8 °F 24.8 °F 32.0 °F 93% 29.89 in 9.0 mi SW 12.7 mph - N/A   Overcast
1:36 AM 33.8 °F 24.8 °F 32.0 °F 93% 29.89 in 9.0 mi SW 12.7 mph - N/A Rain Light Rain
1:50 AM 33.8 °F 24.3 °F 30.2 °F 87% 29.89 in 9.0 mi SW 13.8 mph - N/A Rain , Snow Light Snow
1:53 AM 33.8 °F 25.3 °F 30.2 °F 87% 29.89 in 9.0 mi SW 11.5 mph - N/A Snow Light Snow
2:00 AM 34 °F - 31 °F 86% 29.89 in 10 mi SW 11.5 mph - - Snow Light Snow
2:00 AM 33.8 °F 25.3 °F 32.0 °F 93% 29.89 in 9.0 mi SW 11.5 mph - N/A Snow Light Snow
2:13 AM 33.8 °F 25.3 °F 32.0 °F 93% 29.88 in 9.0 mi SW 11.5 mph - N/A Snow Light Snow
2:29 AM 33.8 °F 25.3 °F 32.0 °F 93% 29.88 in 8.0 mi SW 11.5 mph - N/A Snow Light Snow
2:30 AM 33.8 °F 24.8 °F 32.0 °F 93% 29.88 in 8.0 mi SW 12.7 mph - N/A Snow Light Snow
2:36 AM 33.8 °F 24.3 °F 32.0 °F 93% 29.88 in 8.0 mi SW 13.8 mph - N/A   Overcast
2:39 AM 33.8 °F 24.8 °F 32.0 °F 93% 29.88 in 8.0 mi WSW 12.7 mph - N/A   Overcast
2:40 AM 33.8 °F 24.3 °F 32.0 °F 93% 29.88 in 9.0 mi WSW 13.8 mph - N/A Rain Light Rain
2:41 AM 33.8 °F 24.3 °F 32.0 °F 93% 29.88 in 9.0 mi WSW 13.8 mph - N/A Rain Light Rain
2:42 AM 33.8 °F 24.8 °F 32.0 °F 93% 29.88 in 9.0 mi WSW 12.7 mph - N/A Rain Light Rain
2:43 AM 33.8 °F 25.3 °F 32.0 °F 93% 29.88 in 9.0 mi WSW 11.5 mph - N/A Rain Light Rain
2:50 AM 33.8 °F 24.3 °F 32.0 °F 93% 29.88 in 9.0 mi WSW 13.8 mph - N/A Rain Light Rain
3:00 AM 33.8 °F 23.9 °F 30.2 °F 87% 29.88 in 9.0 mi WSW 15.0 mph - N/A Rain Light Rain
3:02 AM 33.8 °F 24.3 °F 30.2 °F 87% 29.88 in 9.0 mi WSW 13.8 mph - N/A   Overcast
3:03 AM 33.8 °F 25.3 °F 30.2 °F 87% 29.88 in 9.0 mi WSW 11.5 mph 18.4 mph N/A Snow Light Snow
3:08 AM 33.8 °F 23.9 °F 30.2 °F 87% 29.88 in 9.0 mi WSW 15.0 mph - N/A Snow Light Snow
3:17 AM 33.8 °F 24.8 °F 30.2 °F 87% 29.88 in 9.0 mi WSW 12.7 mph - N/A Snow Light Snow
3:22 AM 33.8 °F 25.3 °F 30.2 °F 87% 29.88 in 9.0 mi WSW 11.5 mph - N/A   Overcast
3:29 AM 33.8 °F 26.4 °F 30.2 °F 87% 29.87 in 9.0 mi WSW 9.2 mph - N/A   Overcast
3:44 AM 33.8 °F 27.0 °F 30.2 °F 87% 29.88 in 9.0 mi WSW 8.1 mph - N/A Rain Light Rain
3:56 AM 33.8 °F 27.0 °F 30.2 °F 87% 29.87 in 9.0 mi WSW 8.1 mph - N/A Rain Light Rain
4:00 AM 33.8 °F 25.8 °F 30.2 °F 87% 29.86 in 9.0 mi SW 10.4 mph - N/A Rain Light Rain
4:01 AM 33.8 °F 25.8 °F 30.2 °F 87% 29.86 in 9.0 mi SW 10.4 mph - N/A   Overcast
4:10 AM 33.8 °F 25.8 °F 28.4 °F 81% 29.86 in 9.0 mi SW 10.4 mph - N/A   Overcast
4:25 AM 33.8 °F 25.8 °F 28.4 °F 81% 29.86 in 9.0 mi WSW 10.4 mph - N/A Rain Light Rain
4:40 AM 33.8 °F 25.8 °F 28.4 °F 81% 29.85 in 9.0 mi SW 10.4 mph - N/A   Overcast
4:48 AM 33.8 °F 25.3 °F 28.4 °F 81% 29.85 in 9.0 mi SW 11.5 mph - N/A Rain Light Rain
5:00 AM 33.8 °F 26.4 °F 28.4 °F 81% 29.85 in 9.0 mi WSW 9.2 mph - N/A Rain Light Rain
5:01 AM 33.8 °F 26.4 °F 28.4 °F 81% 29.85 in 9.0 mi WSW 9.2 mph - N/A Rain Light Rain
5:11 AM 33.8 °F 26.4 °F 28.4 °F 81% 29.84 in 9.0 mi West 9.2 mph - N/A Rain Light Rain
5:19 AM 33.8 °F 26.4 °F 28.4 °F 81% 29.85 in 9.0 mi West 9.2 mph - N/A Rain Light Rain
5:40 AM 33.8 °F 26.4 °F 28.4 °F 81% 29.85 in 9.0 mi WSW 9.2 mph - N/A   Overcast
5:43 AM 33.8 °F 27.0 °F 28.4 °F 81% 29.85 in 9.0 mi West 8.1 mph - N/A Rain Light Rain
5:51 AM 33.8 °F 25.8 °F 28.4 °F 81% 29.85 in 9.0 mi WSW 10.4 mph - N/A Rain Light Rain
5:52 AM 33.8 °F 26.4 °F 28.4 °F 81% 29.85 in 9.0 mi West 9.2 mph - N/A Rain , Snow Light Snow
5:57 AM 33.8 °F 25.3 °F 28.4 °F 81% 29.85 in 9.0 mi WSW 11.5 mph - N/A Snow Light Snow
5:59 AM 33.8 °F 24.8 °F 28.4 °F 81% 29.85 in 9.0 mi WSW 12.7 mph - N/A Snow Light Snow
6:00 AM 33.8 °F 25.3 °F 28.4 °F 81% 29.85 in 9.0 mi WSW 11.5 mph - N/A Snow Light Snow
6:01 AM 33.8 °F 25.8 °F 28.4 °F 81% 29.85 in 9.0 mi WSW 10.4 mph - N/A Snow Light Snow
6:02 AM 33.8 °F 25.8 °F 28.4 °F 81% 29.85 in 9.0 mi WSW 10.4 mph - N/A Rain , Snow Light Snow
6:04 AM 33.8 °F 24.3 °F 28.4 °F 81% 29.85 in 9.0 mi WSW 13.8 mph - N/A Rain Light Rain
6:07 AM 33.8 °F 24.8 °F 28.4 °F 81% 29.85 in 9.0 mi WSW 12.7 mph - N/A Rain Light Rain
6:11 AM 33.8 °F 25.3 °F 28.4 °F 81% 29.85 in 9.0 mi WSW 11.5 mph - N/A Rain Light Rain
6:13 AM 33.8 °F 25.3 °F 28.4 °F 81% 29.85 in 9.0 mi WSW 11.5 mph - N/A   Mostly Cloudy
7:00 AM 32.0 °F 22.5 °F 26.6 °F 80% 29.84 in 9.0 mi West 12.7 mph - N/A   Scattered Clouds
8:00 AM 32 °F - 26 °F 68% 29.85 in 10 mi WSW 13.8 mph - -   Overcast
8:00 AM 32.0 °F 21.6 °F 24.8 °F 75% 29.85 in 9.0 mi WSW 15.0 mph - N/A   Overcast
8:52 AM 32.0 °F 22.1 °F 26.6 °F 80% 29.85 in 9.0 mi WSW 13.8 mph - N/A Rain Light Rain
8:57 AM 32.0 °F 23.0 °F 26.6 °F 80% 29.85 in 7.0 mi WSW 11.5 mph - N/A Rain , Snow Light Snow
9:00 AM 32.0 °F 22.5 °F 26.6 °F 80% 29.85 in 7.0 mi SW 12.7 mph - N/A Rain , Snow Light Snow
9:02 AM 32.0 °F 23.0 °F 26.6 °F 80% 29.85 in 7.0 mi WSW 11.5 mph - N/A Snow Light Snow
9:31 AM 32.0 °F 23.0 °F 26.6 °F 80% 29.85 in 8.0 mi WSW 11.5 mph - N/A   Overcast
9:32 AM 32.0 °F 23.0 °F 26.6 °F 80% 29.85 in 8.0 mi WSW 11.5 mph - N/A Rain Light Rain
9:42 AM 32.0 °F 23.6 °F 26.6 °F 80% 29.85 in 7.0 mi WSW 10.4 mph - N/A Rain Light Rain
9:51 AM 32.0 °F 24.2 °F 26.6 °F 80% 29.85 in 9.0 mi WSW 9.2 mph - N/A Rain Light Rain
9:59 AM 32.0 °F 24.2 °F 28.4 °F 87% 29.85 in 7.0 mi West 9.2 mph - N/A Rain , Snow Light Snow
10:00 AM 32.0 °F 23.6 °F 28.4 °F 87% 29.85 in 6.0 mi West 10.4 mph - N/A Rain , Snow Light Snow
10:01 AM 32.0 °F 23.6 °F 28.4 °F 87% 29.85 in 5.0 mi West 10.4 mph - N/A Rain , Snow Light Snow
10:04 AM 32.0 °F 23.6 °F 28.4 °F 87% 29.85 in 4.0 mi West 10.4 mph - N/A Snow Light Snow
10:11 AM 32.0 °F 23.6 °F 28.4 °F 87% 29.85 in 2.5 mi WSW 10.4 mph - N/A Snow Light Snow
10:16 AM 32.0 °F 24.2 °F 28.4 °F 87% 29.85 in 1.8 mi West 9.2 mph - N/A Snow Light Snow
10:19 AM 32.0 °F 23.6 °F 28.4 °F 87% 29.85 in 2.0 mi West 10.4 mph - N/A Snow Light Snow
10:23 AM 32.0 °F 24.2 °F 28.4 °F 87% 29.85 in 2.5 mi WSW 9.2 mph - N/A Snow Light Snow
10:29 AM 32.0 °F 24.8 °F 28.4 °F 87% 29.85 in 2.5 mi WSW 8.1 mph - N/A Snow Light Snow
10:34 AM 32.0 °F 25.6 °F 28.4 °F 87% 29.85 in 2.0 mi WSW 6.9 mph - N/A Snow Light Snow
10:35 AM 32.0 °F 24.8 °F 28.4 °F 87% 29.85 in 2.0 mi West 8.1 mph - N/A Snow Light Snow
10:37 AM 32.0 °F 26.4 °F 28.4 °F 87% 29.85 in 1.8 mi West 5.8 mph - N/A Snow Light Snow
10:45 AM 32.0 °F 26.4 °F 28.4 °F 87% 29.85 in 2.0 mi WSW 5.8 mph - N/A Snow Light Snow
10:50 AM 32.0 °F 26.4 °F 30.2 °F 93% 29.85 in 3.0 mi WSW 5.8 mph - N/A Snow Light Snow
11:00 AM 32.0 °F 26.4 °F 28.4 °F 87% 29.85 in 5.0 mi SW 5.8 mph - N/A Snow Light Snow
11:02 AM 32.0 °F 25.6 °F 28.4 °F 87% 29.85 in 6.0 mi SW 6.9 mph - N/A Snow Light Snow
11:09 AM 32.0 °F 25.6 °F 28.4 °F 87% 29.85 in 7.0 mi SW 6.9 mph - N/A Snow Light Snow
11:10 AM 32.0 °F 25.6 °F 30.2 °F 93% 29.85 in 7.0 mi SW 6.9 mph - N/A   Overcast
11:44 AM 32.0 °F 24.8 °F 28.4 °F 87% 29.85 in 5.0 mi WSW 8.1 mph - N/A   Overcast
11:45 AM 32.0 °F 24.8 °F 28.4 °F 87% 29.85 in 4.0 mi WSW 8.1 mph - N/A   Overcast
11:48 AM 32.0 °F 24.8 °F 30.2 °F 93% 29.85 in 2.2 mi WSW 8.1 mph - N/A   Overcast
11:50 AM 32.0 °F 24.8 °F 30.2 °F 93% 29.85 in 1.8 mi WSW 8.1 mph - N/A Snow Light Snow
11:55 AM 32.0 °F 24.2 °F 30.2 °F 93% 29.85 in 1.2 mi WSW 9.2 mph - N/A Snow Light Snow
12:00 PM 32.0 °F 23.6 °F 30.2 °F 93% 29.85 in 1.2 mi WSW 10.4 mph - N/A Snow Light Snow
12:03 PM 32.0 °F 24.2 °F 30.2 °F 93% 29.85 in 1.2 mi WSW 9.2 mph - N/A Snow Light Snow
12:18 PM 32.0 °F 24.8 °F 30.2 °F 93% 29.85 in 1.2 mi West 8.1 mph - N/A Snow Light Snow
12:21 PM 32.0 °F 24.2 °F 30.2 °F 93% 29.85 in 2.0 mi West 9.2 mph - N/A Snow Light Snow
12:24 PM 32.0 °F 24.2 °F 32.0 °F 100% 29.85 in 3.0 mi West 9.2 mph - N/A Snow Light Snow
12:31 PM 32.0 °F 26.4 °F 30.2 °F 93% 29.84 in 4.0 mi West 5.8 mph - N/A Snow Light Snow
12:36 PM 33.8 °F 27.0 °F 30.2 °F 87% 29.85 in 5.0 mi WSW 8.1 mph - N/A   Mostly Cloudy
12:37 PM 33.8 °F 27.0 °F 30.2 °F 87% 29.85 in 6.0 mi WSW 8.1 mph - N/A   Mostly Cloudy
12:41 PM 33.8 °F 27.0 °F 30.2 °F 87% 29.84 in 7.0 mi WSW 8.1 mph - N/A   Mostly Cloudy
1:00 PM 33.8 °F 27.0 °F 30.2 °F 87% 29.84 in 7.0 mi SW 8.1 mph - N/A   Mostly Cloudy
1:10 PM 33.8 °F 25.3 °F 28.4 °F 81% 29.85 in 8.0 mi West 11.5 mph - N/A Rain Light Rain
1:15 PM 33.8 °F 23.9 °F 26.6 °F 75% 29.84 in 9.0 mi West 15.0 mph - N/A Rain , Snow Light Snow
1:18 PM 33.8 °F 23.2 °F 26.6 °F 75% 29.85 in 9.0 mi West 17.3 mph - N/A Snow Light Snow
1:20 PM 33.8 °F 23.2 °F 26.6 °F 75% 29.85 in 9.0 mi West 17.3 mph - N/A Snow Light Snow
1:21 PM 33.8 °F 23.2 °F 26.6 °F 75% 29.85 in 9.0 mi West 17.3 mph - N/A Snow Light Snow
1:28 PM 33.8 °F 23.5 °F 24.8 °F 70% 29.85 in 9.0 mi West 16.1 mph 21.9 mph N/A   Overcast
2:00 PM 36 °F - 22 °F 45% 29.84 in 10 mi West 20.7 mph - -   Clear
2:00 PM 35.6 °F 24.2 °F 23.0 °F 60% 29.84 in 9.0 mi West 21.9 mph - N/A   Overcast
2:33 PM 33.8 °F 21.3 °F 23.0 °F 65% 29.85 in 9.0 mi West 24.2 mph 29.9 mph N/A   Overcast
2:37 PM 33.8 °F 22.2 °F 23.0 °F 65% 29.85 in 9.0 mi West 20.7 mph 29.9 mph N/A Snow Light Snow
2:44 PM 35.6 °F 23.7 °F 23.0 °F 60% 29.85 in 9.0 mi West 24.2 mph - N/A Snow Light Snow
2:48 PM 35.6 °F 24.0 °F 21.2 °F 56% 29.85 in 9.0 mi West 23.0 mph - N/A   Overcast
3:00 PM 33.8 °F 22.2 °F 21.2 °F 60% 29.85 in 9.0 mi West 20.7 mph 31.1 mph N/A   Overcast
4:00 PM 33.8 °F 22.5 °F 17.6 °F 52% 29.86 in 9.0 mi West 19.6 mph 27.6 mph N/A   Overcast
5:00 PM 32.0 °F 19.5 °F 19.4 °F 60% 29.88 in 9.0 mi West 21.9 mph - N/A   Overcast
5:13 PM 32.0 °F 20.1 °F 19.4 °F 60% 29.88 in 9.0 mi West 19.6 mph 28.8 mph N/A Snow Light Snow
5:24 PM 32.0 °F 20.1 °F 17.6 °F 55% 29.88 in 9.0 mi West 19.6 mph 26.5 mph N/A   Overcast
5:50 PM 30.2 °F 15.4 °F 21.2 °F 69% 29.89 in 9.0 mi West 28.8 mph 36.8 mph N/A Snow Light Snow
5:58 PM 28.4 °F 15.4 °F 21.2 °F 74% 29.90 in 5.0 mi West 19.6 mph 36.8 mph N/A Snow Light Snow
6:00 PM 28.4 °F 16.6 °F 21.2 °F 74% 29.90 in 5.0 mi West 16.1 mph 34.5 mph N/A Snow Light Snow
6:05 PM 30.2 °F 18.1 °F 21.2 °F 69% 29.90 in 6.0 mi West 18.4 mph 26.5 mph N/A Snow Light Snow
6:10 PM 30.2 °F 17.4 °F 19.4 °F 64% 29.90 in 9.0 mi West 20.7 mph 27.6 mph N/A   Overcast
7:00 PM 30.2 °F 16.8 °F 15.8 °F 55% 29.91 in 9.0 mi West 23.0 mph 33.4 mph N/A   Overcast
7:40 PM 28.4 °F 13.3 °F 15.8 °F 59% 29.93 in 9.0 mi West 27.6 mph 35.7 mph N/A Snow Light Snow
7:56 PM 26.6 °F 12.0 °F 19.4 °F 74% 29.94 in 5.0 mi West 23.0 mph 33.4 mph N/A Snow Light Snow
8:00 PM 27 °F - 20 °F 64% 29.94 in 4 mi West 24.2 mph - - Snow Light Snow
8:00 PM 26.6 °F 11.1 °F 19.4 °F 74% 29.94 in 4.0 mi West 26.5 mph 33.4 mph N/A Snow Light Snow
8:13 PM 26.6 °F 14.3 °F 21.2 °F 80% 29.95 in 6.0 mi West 16.1 mph 21.9 mph N/A Snow Light Snow
8:39 PM 26.6 °F 10.8 °F 15.8 °F 64% 29.95 in 9.0 mi WNW 27.6 mph - N/A Snow Light Snow
8:44 PM 26.6 °F 10.8 °F 15.8 °F 64% 29.96 in 5.0 mi WNW 27.6 mph 34.5 mph N/A Snow Light Snow
8:49 PM 26.6 °F 12.4 °F 14.0 °F 59% 29.96 in 6.0 mi NW 21.9 mph 34.5 mph N/A Snow Light Snow
8:59 PM 26.6 °F 13.8 °F 14.0 °F 59% 29.96 in 9.0 mi WNW 17.3 mph 31.1 mph N/A   Overcast
9:00 PM 26.6 °F 13.4 °F 14.0 °F 59% 29.97 in 9.0 mi NW 18.4 mph 31.1 mph N/A   Overcast
9:35 PM 24.8 °F 10.3 °F 12.2 °F 59% 29.98 in 9.0 mi WNW 20.7 mph 34.5 mph N/A Snow Light Snow
9:44 PM 24.8 °F 10.7 °F 12.2 °F 59% 29.99 in 9.0 mi WNW 19.6 mph 31.1 mph N/A   Overcast
10:00 PM 24.8 °F 10.7 °F 8.6 °F 50% 29.99 in 9.0 mi NW 19.6 mph 32.2 mph N/A   Overcast
11:00 PM 23.0 °F 9.6 °F 8.6 °F 54% 30.01 in 9.0 mi WNW 16.1 mph 26.5 mph N/A   Scattered Clouds
11:36 PM 23.0 °F 10.1 °F 8.6 °F 54% 30.01 in 9.0 mi WNW 15.0 mph 29.9 mph N/A Snow Light Snow